sensor_id;sensor_type;location;lat;lon;timestamp;pressure;altitude;pressure_sealevel;temperature;humidity
49541;BME280;35432;43.566;1.398;2023-02-11T00:00:31;101919.75;;;1.22;68.63
49541;BME280;35432;43.566;1.398;2023-02-11T00:02:56;101916.84;;;1.18;68.40
49541;BME280;35432;43.566;1.398;2023-02-11T00:05:22;101917.47;;;1.13;68.43
49541;BME280;35432;43.566;1.398;2023-02-11T00:07:47;101917.38;;;1.12;68.00
49541;BME280;35432;43.566;1.398;2023-02-11T00:10:13;101905.13;;;1.09;68.71
49541;BME280;35432;43.566;1.398;2023-02-11T00:12:38;101910.19;;;1.08;68.67
49541;BME280;35432;43.566;1.398;2023-02-11T00:15:06;101916.09;;;1.05;68.15
49541;BME280;35432;43.566;1.398;2023-02-11T00:17:32;101906.50;;;1.04;68.39
49541;BME280;35432;43.566;1.398;2023-02-11T00:19:57;101906.50;;;1.04;68.43
49541;BME280;35432;43.566;1.398;2023-02-11T00:22:23;101893.47;;;1.03;68.44
49541;BME280;35432;43.566;1.398;2023-02-11T00:24:48;101888.09;;;0.99;68.06
49541;BME280;35432;43.566;1.398;2023-02-11T00:27:14;101887.19;;;0.99;68.91
49541;BME280;35432;43.566;1.398;2023-02-11T00:29:39;101887.09;;;0.97;68.14
49541;BME280;35432;43.566;1.398;2023-02-11T00:32:05;101887.97;;;0.98;68.62
49541;BME280;35432;43.566;1.398;2023-02-11T00:34:34;101892.38;;;0.99;68.67
49541;BME280;35432;43.566;1.398;2023-02-11T00:37:00;101893.28;;;0.99;68.16
49541;BME280;35432;43.566;1.398;2023-02-11T00:39:25;101884.59;;;0.99;68.73
49541;BME280;35432;43.566;1.398;2023-02-11T00:41:51;101876.81;;;0.99;68.42
49541;BME280;35432;43.566;1.398;2023-02-11T00:44:16;101885.38;;;0.98;68.23
49541;BME280;35432;43.566;1.398;2023-02-11T00:46:42;101876.81;;;0.99;68.38
49541;BME280;35432;43.566;1.398;2023-02-11T00:49:07;101885.38;;;0.98;68.26
49541;BME280;35432;43.566;1.398;2023-02-11T00:51:32;101885.38;;;0.98;68.74
49541;BME280;35432;43.566;1.398;2023-02-11T00:53:58;101884.50;;;0.97;68.86
49541;BME280;35432;43.566;1.398;2023-02-11T00:56:23;101881.81;;;0.96;68.93
49541;BME280;35432;43.566;1.398;2023-02-11T00:58:49;101876.44;;;0.93;68.33
49541;BME280;35432;43.566;1.398;2023-02-11T01:01:14;101877.13;;;0.90;68.91
49541;BME280;35432;43.566;1.398;2023-02-11T01:03:40;101875.34;;;0.89;68.45
49541;BME280;35432;43.566;1.398;2023-02-11T01:06:07;101872.50;;;0.84;68.76
49541;BME280;35432;43.566;1.398;2023-02-11T01:08:32;101872.19;;;0.80;68.44
49541;BME280;35432;43.566;1.398;2023-02-11T01:11:04;101875.28;;;0.74;68.08
49541;BME280;35432;43.566;1.398;2023-02-11T01:13:32;101873.31;;;0.70;68.65
49541;BME280;35432;43.566;1.398;2023-02-11T01:15:58;101873.94;;;0.66;68.38
49541;BME280;35432;43.566;1.398;2023-02-11T01:18:24;101876.34;;;0.63;68.06
49541;BME280;35432;43.566;1.398;2023-02-11T01:20:51;101873.53;;;0.60;68.72
49541;BME280;35432;43.566;1.398;2023-02-11T01:23:17;101873.34;;;0.56;68.62
49541;BME280;35432;43.566;1.398;2023-02-11T01:25:43;101866.34;;;0.55;68.37
49541;BME280;35432;43.566;1.398;2023-02-11T01:28:17;101865.38;;;0.53;68.14
49541;BME280;35432;43.566;1.398;2023-02-11T01:30:42;101854.00;;;0.51;68.47
49541;BME280;35432;43.566;1.398;2023-02-11T01:33:08;101856.41;;;0.48;68.87
49541;BME280;35432;43.566;1.398;2023-02-11T01:35:33;101856.22;;;0.45;68.26
49541;BME280;35432;43.566;1.398;2023-02-11T01:37:59;101851.72;;;0.42;68.23
49541;BME280;35432;43.566;1.398;2023-02-11T01:40:24;101852.47;;;0.40;68.64
49541;BME280;35432;43.566;1.398;2023-02-11T01:42:49;101853.16;;;0.37;68.76
49541;BME280;35432;43.566;1.398;2023-02-11T01:45:41;101853.03;;;0.36;68.44
49541;BME280;35432;43.566;1.398;2023-02-11T01:48:08;101849.69;;;0.37;68.85
49541;BME280;35432;43.566;1.398;2023-02-11T01:50:35;101848.75;;;0.36;68.77
49541;BME280;35432;43.566;1.398;2023-02-11T01:53:02;101845.25;;;0.36;68.70
49541;BME280;35432;43.566;1.398;2023-02-11T01:55:48;101847.84;;;0.36;68.73
49541;BME280;35432;43.566;1.398;2023-02-11T01:58:34;101843.28;;;0.32;69.01
49541;BME280;35432;43.566;1.398;2023-02-11T02:01:03;101843.09;;;0.28;68.73
49541;BME280;35432;43.566;1.398;2023-02-11T02:03:33;101836.91;;;0.26;68.55
49541;BME280;35432;43.566;1.398;2023-02-11T02:06:15;101840.13;;;0.22;68.22
49541;BME280;35432;43.566;1.398;2023-02-11T02:08:47;101842.72;;;0.22;69.00
49541;BME280;35432;43.566;1.398;2023-02-11T02:11:15;101835.53;;;0.18;68.90
49541;BME280;35432;43.566;1.398;2023-02-11T02:13:40;101836.22;;;0.16;68.78
49541;BME280;35432;43.566;1.398;2023-02-11T02:16:17;101838.53;;;0.11;68.74
49541;BME280;35432;43.566;1.398;2023-02-11T02:35:26;101836.56;;;-0.07;68.06
49541;BME280;35432;43.566;1.398;2023-02-11T02:38:15;101841.63;;;-0.08;68.46
49541;BME280;35432;43.566;1.398;2023-02-11T02:40:44;101837.16;;;-0.11;68.87
49541;BME280;35432;43.566;1.398;2023-02-11T02:43:12;101832.56;;;-0.15;68.54
49541;BME280;35432;43.566;1.398;2023-02-11T02:45:38;101824.59;;;-0.18;68.77
49541;BME280;35432;43.566;1.398;2023-02-11T02:48:04;101817.63;;;-0.19;68.91
49541;BME280;35432;43.566;1.398;2023-02-11T02:50:33;101824.41;;;-0.21;68.46
49541;BME280;35432;43.566;1.398;2023-02-11T02:56:50;101816.25;;;-0.27;68.18
49541;BME280;35432;43.566;1.398;2023-02-11T03:04:46;101802.59;;;-0.38;68.31
49541;BME280;35432;43.566;1.398;2023-02-11T03:09:50;101806.59;;;-0.44;68.58
49541;BME280;35432;43.566;1.398;2023-02-11T03:12:18;101806.47;;;-0.45;69.24
49541;BME280;35432;43.566;1.398;2023-02-11T03:14:45;101805.34;;;-0.49;68.88
49541;BME280;35432;43.566;1.398;2023-02-11T03:17:15;101795.72;;;-0.51;68.75
49541;BME280;35432;43.566;1.398;2023-02-11T03:19:45;101800.78;;;-0.53;68.90
49541;BME280;35432;43.566;1.398;2023-02-11T03:22:18;101797.19;;;-0.55;69.06
49541;BME280;35432;43.566;1.398;2023-02-11T03:24:44;101796.19;;;-0.57;69.20
49541;BME280;35432;43.566;1.398;2023-02-11T03:27:41;101792.75;;;-0.57;68.75
49541;BME280;35432;43.566;1.398;2023-02-11T03:30:42;101792.63;;;-0.59;68.85
49541;BME280;35432;43.566;1.398;2023-02-11T03:33:26;101789.25;;;-0.58;68.82
49541;BME280;35432;43.566;1.398;2023-02-11T03:35:57;101787.56;;;-0.57;69.38
49541;BME280;35432;43.566;1.398;2023-02-11T03:38:28;101786.75;;;-0.56;69.37
49541;BME280;35432;43.566;1.398;2023-02-11T03:40:55;101787.56;;;-0.57;69.41
49541;BME280;35432;43.566;1.398;2023-02-11T03:45:57;101781.41;;;-0.60;69.21
49541;BME280;35432;43.566;1.398;2023-02-11T03:48:43;101781.97;;;-0.64;68.83
49541;BME280;35432;43.566;1.398;2023-02-11T03:51:10;101782.88;;;-0.63;69.60
49541;BME280;35432;43.566;1.398;2023-02-11T03:53:39;101781.75;;;-0.67;69.41
49541;BME280;35432;43.566;1.398;2023-02-11T03:56:07;101778.97;;;-0.70;69.20
49541;BME280;35432;43.566;1.398;2023-02-11T03:58:35;101785.75;;;-0.72;69.26
49541;BME280;35432;43.566;1.398;2023-02-11T04:01:00;101785.63;;;-0.74;69.45
49541;BME280;35432;43.566;1.398;2023-02-11T04:03:27;101784.75;;;-0.74;69.66
49541;BME280;35432;43.566;1.398;2023-02-11T04:05:52;101782.94;;;-0.75;69.44
49541;BME280;35432;43.566;1.398;2023-02-11T04:08:19;101782.75;;;-0.78;69.21
49541;BME280;35432;43.566;1.398;2023-02-11T04:10:44;101788.59;;;-0.81;69.24
49541;BME280;35432;43.566;1.398;2023-02-11T04:13:09;101783.22;;;-0.84;69.45
49541;BME280;35432;43.566;1.398;2023-02-11T04:15:35;101785.69;;;-0.85;69.11
49541;BME280;35432;43.566;1.398;2023-02-11T04:18:00;101780.31;;;-0.89;69.37
49541;BME280;35432;43.566;1.398;2023-02-11T04:20:27;101783.72;;;-0.90;69.29
49541;BME280;35432;43.566;1.398;2023-02-11T04:22:52;101782.72;;;-0.92;69.27
49541;BME280;35432;43.566;1.398;2023-02-11T04:25:18;101778.25;;;-0.94;69.42
49541;BME280;35432;43.566;1.398;2023-02-11T04:27:43;101788.47;;;-0.96;69.24
49541;BME280;35432;43.566;1.398;2023-02-11T04:30:09;101784.88;;;-0.98;68.95
49541;BME280;35432;43.566;1.398;2023-02-11T04:32:35;101789.84;;;-1.01;69.33
49541;BME280;35432;43.566;1.398;2023-02-11T04:35:01;101792.31;;;-1.03;69.05
49541;BME280;35432;43.566;1.398;2023-02-11T04:37:27;101787.88;;;-1.05;69.32
49541;BME280;35432;43.566;1.398;2023-02-11T04:39:52;101784.28;;;-1.07;69.35
49541;BME280;35432;43.566;1.398;2023-02-11T04:42:17;101780.66;;;-1.09;69.26
49541;BME280;35432;43.566;1.398;2023-02-11T04:44:43;101784.03;;;-1.10;69.53
49541;BME280;35432;43.566;1.398;2023-02-11T04:47:08;101780.47;;;-1.12;69.22
49541;BME280;35432;43.566;1.398;2023-02-11T04:49:34;101785.44;;;-1.16;69.26
49541;BME280;35432;43.566;1.398;2023-02-11T04:51:59;101786.13;;;-1.18;69.23
49541;BME280;35432;43.566;1.398;2023-02-11T04:54:25;101788.59;;;-1.20;69.18
49541;BME280;35432;43.566;1.398;2023-02-11T04:56:50;101779.84;;;-1.22;69.02
49541;BME280;35432;43.566;1.398;2023-02-11T04:59:16;101780.44;;;-1.26;68.93
49541;BME280;35432;43.566;1.398;2023-02-11T05:01:41;101774.25;;;-1.28;69.01
49541;BME280;35432;43.566;1.398;2023-02-11T05:04:07;101773.16;;;-1.32;69.67
49541;BME280;35432;43.566;1.398;2023-02-11T05:06:32;101776.53;;;-1.33;69.05
49541;BME280;35432;43.566;1.398;2023-02-11T05:08:58;101773.81;;;-1.34;69.36
49541;BME280;35432;43.566;1.398;2023-02-11T05:11:24;101772.03;;;-1.35;69.17
49541;BME280;35432;43.566;1.398;2023-02-11T05:13:50;101772.72;;;-1.38;69.29
49541;BME280;35432;43.566;1.398;2023-02-11T05:16:16;101777.78;;;-1.39;69.11
49541;BME280;35432;43.566;1.398;2023-02-11T05:18:42;101775.00;;;-1.42;68.90
49541;BME280;35432;43.566;1.398;2023-02-11T05:21:13;101774.78;;;-1.46;69.22
49541;BME280;35432;43.566;1.398;2023-02-11T05:23:39;101782.31;;;-1.49;69.09
49541;BME280;35432;43.566;1.398;2023-02-11T05:26:05;101782.13;;;-1.52;69.23
49541;BME280;35432;43.566;1.398;2023-02-11T05:28:31;101783.56;;;-1.55;69.30
49541;BME280;35432;43.566;1.398;2023-02-11T05:30:57;101774.81;;;-1.57;68.96
49541;BME280;35432;43.566;1.398;2023-02-11T05:33:24;101778.19;;;-1.59;69.50
49541;BME280;35432;43.566;1.398;2023-02-11T05:35:49;101774.69;;;-1.59;69.07
49541;BME280;35432;43.566;1.398;2023-02-11T05:38:15;101777.19;;;-1.61;69.03
49541;BME280;35432;43.566;1.398;2023-02-11T05:40:41;101779.66;;;-1.62;68.98
49541;BME280;35432;43.566;1.398;2023-02-11T05:43:06;101779.56;;;-1.64;69.49
49541;BME280;35432;43.566;1.398;2023-02-11T05:45:32;101777.78;;;-1.65;69.35
49541;BME280;35432;43.566;1.398;2023-02-11T05:47:57;101784.53;;;-1.67;69.10
49541;BME280;35432;43.566;1.398;2023-02-11T05:50:23;101780.03;;;-1.69;69.16
49541;BME280;35432;43.566;1.398;2023-02-11T05:52:49;101775.31;;;-1.75;68.68
49541;BME280;35432;43.566;1.398;2023-02-11T05:55:14;101777.69;;;-1.78;69.09
49541;BME280;35432;43.566;1.398;2023-02-11T05:57:40;101775.81;;;-1.81;68.98
49541;BME280;35432;43.566;1.398;2023-02-11T06:00:06;101769.59;;;-1.83;69.36
49541;BME280;35432;43.566;1.398;2023-02-11T06:02:32;101776.47;;;-1.83;69.29
49541;BME280;35432;43.566;1.398;2023-02-11T06:04:58;101775.56;;;-1.84;69.14
49541;BME280;35432;43.566;1.398;2023-02-11T06:07:23;101770.41;;;-1.84;69.32
49541;BME280;35432;43.566;1.398;2023-02-11T06:09:49;101770.31;;;-1.85;69.55
49541;BME280;35432;43.566;1.398;2023-02-11T06:12:14;101765.94;;;-1.86;69.06
49541;BME280;35432;43.566;1.398;2023-02-11T06:14:40;101768.41;;;-1.88;69.44
49541;BME280;35432;43.566;1.398;2023-02-11T06:17:05;101769.19;;;-1.89;69.10
49541;BME280;35432;43.566;1.398;2023-02-11T06:19:30;101772.56;;;-1.90;69.32
49541;BME280;35432;43.566;1.398;2023-02-11T06:21:56;101768.31;;;-1.90;69.15
49541;BME280;35432;43.566;1.398;2023-02-11T06:24:22;101769.97;;;-1.90;69.08
49541;BME280;35432;43.566;1.398;2023-02-11T06:26:47;101774.25;;;-1.91;69.54
49541;BME280;35432;43.566;1.398;2023-02-11T06:29:13;101779.28;;;-1.92;69.36
49541;BME280;35432;43.566;1.398;2023-02-11T06:31:38;101770.53;;;-1.94;69.35
49541;BME280;35432;43.566;1.398;2023-02-11T06:34:04;101779.88;;;-1.96;69.27
49541;BME280;35432;43.566;1.398;2023-02-11T06:36:30;101776.28;;;-1.98;69.33
49541;BME280;35432;43.566;1.398;2023-02-11T06:38:55;101768.41;;;-2.00;69.64
49541;BME280;35432;43.566;1.398;2023-02-11T06:41:21;101773.59;;;-2.00;69.56
49541;BME280;35432;43.566;1.398;2023-02-11T06:43:47;101778.75;;;-2.00;69.01
49541;BME280;35432;43.566;1.398;2023-02-11T06:46:14;101785.47;;;-2.02;69.50
49541;BME280;35432;43.566;1.398;2023-02-11T06:48:40;101784.59;;;-2.03;69.51
49541;BME280;35432;43.566;1.398;2023-02-11T06:51:08;101778.53;;;-2.03;69.34
49541;BME280;35432;43.566;1.398;2023-02-11T06:53:35;101777.66;;;-2.04;69.49
49541;BME280;35432;43.566;1.398;2023-02-11T06:56:06;101783.69;;;-2.03;69.06
49541;BME280;35432;43.566;1.398;2023-02-11T06:58:33;101794.03;;;-2.03;69.64
49541;BME280;35432;43.566;1.398;2023-02-11T07:00:58;101783.69;;;-2.03;69.78
49541;BME280;35432;43.566;1.398;2023-02-11T07:03:24;101783.81;;;-2.02;69.33
49541;BME280;35432;43.566;1.398;2023-02-11T07:05:50;101783.25;;;-1.97;69.57
49541;BME280;35432;43.566;1.398;2023-02-11T07:08:15;101790.41;;;-1.93;69.53
49541;BME280;35432;43.566;1.398;2023-02-11T07:10:40;101782.09;;;-1.89;69.83
49541;BME280;35432;43.566;1.398;2023-02-11T07:13:06;101783.22;;;-1.85;69.19
49541;BME280;35432;43.566;1.398;2023-02-11T07:15:31;101784.31;;;-1.82;69.48
49541;BME280;35432;43.566;1.398;2023-02-11T07:17:57;101780.19;;;-1.80;69.70
49541;BME280;35432;43.566;1.398;2023-02-11T07:20:22;101784.84;;;-1.74;69.56
49541;BME280;35432;43.566;1.398;2023-02-11T07:22:48;101781.81;;;-1.68;69.76
49541;BME280;35432;43.566;1.398;2023-02-11T07:25:13;101784.03;;;-1.61;69.74
49541;BME280;35432;43.566;1.398;2023-02-11T07:27:39;101788.75;;;-1.55;69.68
49541;BME280;35432;43.566;1.398;2023-02-11T07:30:04;101791.88;;;-1.48;69.75
49541;BME280;35432;43.566;1.398;2023-02-11T07:32:30;101793.28;;;-1.39;69.72
49541;BME280;35432;43.566;1.398;2023-02-11T07:34:55;101792.94;;;-1.32;69.94
49541;BME280;35432;43.566;1.398;2023-02-11T07:37:21;101800.31;;;-1.25;69.87
49541;BME280;35432;43.566;1.398;2023-02-11T07:39:47;101811.06;;;-1.19;69.52
49541;BME280;35432;43.566;1.398;2023-02-11T07:42:12;101812.41;;;-1.12;68.99
49541;BME280;35432;43.566;1.398;2023-02-11T07:44:37;101806.97;;;-1.03;69.43
49541;BME280;35432;43.566;1.398;2023-02-11T07:47:03;101809.47;;;-0.91;69.64
49541;BME280;35432;43.566;1.398;2023-02-11T07:49:29;101803.72;;;-0.74;69.59
49541;BME280;35432;43.566;1.398;2023-02-11T07:51:54;101801.88;;;-0.49;69.17
49541;BME280;35432;43.566;1.398;2023-02-11T07:54:20;101816.16;;;-0.16;68.67
49541;BME280;35432;43.566;1.398;2023-02-11T07:56:46;101817.19;;;0.28;68.63
49541;BME280;35432;43.566;1.398;2023-02-11T07:59:11;101805.59;;;0.94;68.12
49541;BME280;35432;43.566;1.398;2023-02-11T08:01:37;101802.72;;;1.94;67.58
49541;BME280;35432;43.566;1.398;2023-02-11T08:04:03;101800.09;;;3.09;65.43
49541;BME280;35432;43.566;1.398;2023-02-11T08:06:31;101793.25;;;4.18;64.04
49541;BME280;35432;43.566;1.398;2023-02-11T08:08:57;101789.38;;;5.49;62.21
49541;BME280;35432;43.566;1.398;2023-02-11T08:11:24;101794.16;;;7.22;60.93
49541;BME280;35432;43.566;1.398;2023-02-11T08:13:51;101781.44;;;9.07;59.08
49541;BME280;35432;43.566;1.398;2023-02-11T08:16:23;101779.19;;;10.77;57.69
49541;BME280;35432;43.566;1.398;2023-02-11T08:18:50;101773.81;;;12.34;56.55
49541;BME280;35432;43.566;1.398;2023-02-11T08:21:16;101766.44;;;13.75;54.96
49541;BME280;35432;43.566;1.398;2023-02-11T08:23:43;101767.88;;;15.02;53.38
49541;BME280;35432;43.566;1.398;2023-02-11T08:26:11;101765.16;;;16.17;51.84
49541;BME280;35432;43.566;1.398;2023-02-11T08:28:39;101763.72;;;17.24;49.67
49541;BME280;35432;43.566;1.398;2023-02-11T08:31:06;101762.00;;;18.15;47.67
49541;BME280;35432;43.566;1.398;2023-02-11T08:33:33;101753.84;;;18.91;46.24
49541;BME280;35432;43.566;1.398;2023-02-11T08:35:59;101752.78;;;19.60;44.92
49541;BME280;35432;43.566;1.398;2023-02-11T08:38:24;101743.53;;;20.27;44.08
49541;BME280;35432;43.566;1.398;2023-02-11T08:40:50;101740.56;;;20.82;42.86
49541;BME280;35432;43.566;1.398;2023-02-11T08:43:15;101735.38;;;21.48;41.86
49541;BME280;35432;43.566;1.398;2023-02-11T08:45:41;101733.25;;;21.94;40.57
49541;BME280;35432;43.566;1.398;2023-02-11T08:48:07;101729.88;;;22.49;39.90
49541;BME280;35432;43.566;1.398;2023-02-11T08:50:32;101729.44;;;22.93;39.12
49541;BME280;35432;43.566;1.398;2023-02-11T08:52:58;101728.00;;;23.36;38.59
49541;BME280;35432;43.566;1.398;2023-02-11T08:55:23;101725.50;;;23.83;38.09
49541;BME280;35432;43.566;1.398;2023-02-11T08:57:49;101717.81;;;24.21;37.53
49541;BME280;35432;43.566;1.398;2023-02-11T09:00:16;101723.53;;;24.59;36.80
49541;BME280;35432;43.566;1.398;2023-02-11T09:02:41;101713.84;;;25.00;35.91
49541;BME280;35432;43.566;1.398;2023-02-11T09:05:07;101714.75;;;25.21;35.87
49541;BME280;35432;43.566;1.398;2023-02-11T09:07:32;101710.31;;;25.41;35.48
49541;BME280;35432;43.566;1.398;2023-02-11T09:09:57;101714.47;;;25.70;35.37
49541;BME280;35432;43.566;1.398;2023-02-11T09:12:23;101707.47;;;26.06;35.25
49541;BME280;35432;43.566;1.398;2023-02-11T09:14:48;101702.53;;;26.35;34.38
49541;BME280;35432;43.566;1.398;2023-02-11T09:17:14;101691.06;;;26.49;34.37
49541;BME280;35432;43.566;1.398;2023-02-11T09:19:39;101688.34;;;26.49;34.01
49541;BME280;35432;43.566;1.398;2023-02-11T09:22:05;101686.72;;;26.64;34.14
49541;BME280;35432;43.566;1.398;2023-02-11T09:24:30;101687.75;;;26.61;33.31
49541;BME280;35432;43.566;1.398;2023-02-11T09:26:55;101673.31;;;26.80;33.44
49541;BME280;35432;43.566;1.398;2023-02-11T09:29:21;101679.41;;;27.03;33.27
49541;BME280;35432;43.566;1.398;2023-02-11T09:31:46;101679.56;;;27.35;33.17
49541;BME280;35432;43.566;1.398;2023-02-11T09:34:12;101676.25;;;27.65;32.37
49541;BME280;35432;43.566;1.398;2023-02-11T09:36:39;101680.81;;;27.80;32.38
49541;BME280;35432;43.566;1.398;2023-02-11T09:39:08;101683.81;;;27.92;31.90
49541;BME280;35432;43.566;1.398;2023-02-11T09:44:30;101682.56;;;28.31;31.45
49541;BME280;35432;43.566;1.398;2023-02-11T09:49:43;101681.94;;;28.42;28.87
49541;BME280;35432;43.566;1.398;2023-02-11T09:52:29;101687.63;;;28.54;31.13
49541;BME280;35432;43.566;1.398;2023-02-11T09:54:59;101690.50;;;28.67;30.99
49541;BME280;35432;43.566;1.398;2023-02-11T09:57:34;101696.09;;;28.79;29.94
49541;BME280;35432;43.566;1.398;2023-02-11T10:00:02;101686.78;;;29.00;30.22
49541;BME280;35432;43.566;1.398;2023-02-11T10:13:39;101663.09;;;29.48;29.38
49541;BME280;35432;43.566;1.398;2023-02-11T10:21:53;101667.94;;;29.72;29.28
49541;BME280;35432;43.566;1.398;2023-02-11T10:24:21;101671.53;;;29.87;29.66
49541;BME280;35432;43.566;1.398;2023-02-11T10:26:46;101661.47;;;29.75;29.24
49541;BME280;35432;43.566;1.398;2023-02-11T10:31:54;101662.50;;;29.72;29.32
49541;BME280;35432;43.566;1.398;2023-02-11T10:34:20;101663.28;;;29.89;29.13
49541;BME280;35432;43.566;1.398;2023-02-11T10:36:46;101656.91;;;30.04;28.87
49541;BME280;35432;43.566;1.398;2023-02-11T10:39:22;101664.34;;;30.01;28.83
49541;BME280;35432;43.566;1.398;2023-02-11T10:42:07;101660.94;;;29.97;27.43
49541;BME280;35432;43.566;1.398;2023-02-11T10:45:02;101659.44;;;29.64;28.59
49541;BME280;35432;43.566;1.398;2023-02-11T10:47:31;101662.91;;;29.66;29.19
49541;BME280;35432;43.566;1.398;2023-02-11T10:49:58;101657.28;;;29.84;29.27
49541;BME280;35432;43.566;1.398;2023-02-11T10:52:28;101655.50;;;29.97;28.82
49541;BME280;35432;43.566;1.398;2023-02-11T10:55:16;101651.28;;;29.78;28.18
49541;BME280;35432;43.566;1.398;2023-02-11T10:58:02;101648.06;;;29.86;26.84
49541;BME280;35432;43.566;1.398;2023-02-11T11:00:39;101634.97;;;30.07;28.05
49541;BME280;35432;43.566;1.398;2023-02-11T11:03:47;101639.63;;;29.91;28.49
49541;BME280;35432;43.566;1.398;2023-02-11T11:06:14;101630.88;;;30.15;29.65
49541;BME280;35432;43.566;1.398;2023-02-11T11:08:41;101621.59;;;30.04;29.52
49541;BME280;35432;43.566;1.398;2023-02-11T11:11:16;101621.47;;;29.33;25.98
49541;BME280;35432;43.566;1.398;2023-02-11T11:16:20;101623.59;;;27.37;31.73
49541;BME280;35432;43.566;1.398;2023-02-11T11:18:48;101625.75;;;26.41;34.05
49541;BME280;35432;43.566;1.398;2023-02-11T11:21:23;101632.19;;;25.18;31.94
49541;BME280;35432;43.566;1.398;2023-02-11T11:23:54;101628.56;;;24.10;36.28
49541;BME280;35432;43.566;1.398;2023-02-11T11:26:22;101626.47;;;22.92;37.35
49541;BME280;35432;43.566;1.398;2023-02-11T11:31:16;101626.69;;;21.03;40.45
49541;BME280;35432;43.566;1.398;2023-02-11T11:33:44;101627.72;;;20.21;41.71
49541;BME280;35432;43.566;1.398;2023-02-11T11:36:12;101630.53;;;19.26;42.37
49541;BME280;35432;43.566;1.398;2023-02-11T11:38:45;101635.75;;;18.78;40.24
49541;BME280;35432;43.566;1.398;2023-02-11T11:41:18;101637.28;;;18.37;43.23
49541;BME280;35432;43.566;1.398;2023-02-11T11:46:41;101622.97;;;17.75;43.78
49541;BME280;35432;43.566;1.398;2023-02-11T11:49:30;101628.50;;;17.55;43.27
49541;BME280;35432;43.566;1.398;2023-02-11T11:54:48;101623.69;;;17.07;44.17
49541;BME280;35432;43.566;1.398;2023-02-11T11:57:24;101621.09;;;16.96;44.43
49541;BME280;35432;43.566;1.398;2023-02-11T11:59:51;101616.69;;;16.92;47.61
49541;BME280;35432;43.566;1.398;2023-02-11T12:02:39;101606.13;;;16.84;44.30
49541;BME280;35432;43.566;1.398;2023-02-11T12:05:26;101608.91;;;16.69;47.03
49541;BME280;35432;43.566;1.398;2023-02-11T12:13:56;101609.38;;;15.94;45.84
49541;BME280;35432;43.566;1.398;2023-02-11T12:16:52;101601.47;;;15.71;45.96
49541;BME280;35432;43.566;1.398;2023-02-11T12:22:18;101603.28;;;15.55;50.18
49541;BME280;35432;43.566;1.398;2023-02-11T12:43:41;101578.66;;;15.04;51.09
49541;BME280;35432;43.566;1.398;2023-02-11T12:51:54;101573.38;;;14.80;46.53
49541;BME280;35432;43.566;1.398;2023-02-11T12:54:30;101557.44;;;14.83;49.28
49541;BME280;35432;43.566;1.398;2023-02-11T12:57:04;101560.97;;;14.88;51.33
49541;BME280;35432;43.566;1.398;2023-02-11T13:02:17;101564.53;;;14.71;47.43
49541;BME280;35432;43.566;1.398;2023-02-11T13:04:48;101545.06;;;14.77;51.76
49541;BME280;35432;43.566;1.398;2023-02-11T13:07:22;101551.25;;;14.79;48.92
49541;BME280;35432;43.566;1.398;2023-02-11T13:10:10;101537.16;;;14.72;49.42
49541;BME280;35432;43.566;1.398;2023-02-11T13:12:42;101537.97;;;14.70;52.28
49541;BME280;35432;43.566;1.398;2023-02-11T13:15:28;101527.38;;;14.62;53.04
49541;BME280;35432;43.566;1.398;2023-02-11T13:18:04;101537.09;;;14.60;50.47
49541;BME280;35432;43.566;1.398;2023-02-11T13:20:47;101528.28;;;14.66;51.03
49541;BME280;35432;43.566;1.398;2023-02-11T13:23:28;101530.06;;;14.60;49.44
49541;BME280;35432;43.566;1.398;2023-02-11T13:26:04;101517.66;;;14.53;48.72
49541;BME280;35432;43.566;1.398;2023-02-11T13:31:02;101519.44;;;14.48;52.36
49541;BME280;35432;43.566;1.398;2023-02-11T13:33:34;101527.38;;;14.32;51.17
49541;BME280;35432;43.566;1.398;2023-02-11T13:38:26;101513.22;;;14.23;52.44
49541;BME280;35432;43.566;1.398;2023-02-11T13:41:18;101515.88;;;14.19;49.49
49541;BME280;35432;43.566;1.398;2023-02-11T13:43:59;101509.69;;;14.10;49.31
49541;BME280;35432;43.566;1.398;2023-02-11T13:46:46;101507.94;;;14.15;52.38
49541;BME280;35432;43.566;1.398;2023-02-11T13:49:19;101500.88;;;14.20;51.51
49541;BME280;35432;43.566;1.398;2023-02-11T13:51:46;101501.75;;;14.31;53.02
49541;BME280;35432;43.566;1.398;2023-02-11T13:54:21;101503.53;;;14.32;49.85
49541;BME280;35432;43.566;1.398;2023-02-11T13:57:15;101503.53;;;14.32;49.28
49541;BME280;35432;43.566;1.398;2023-02-11T13:59:57;101496.47;;;14.30;48.72
49541;BME280;35432;43.566;1.398;2023-02-11T14:02:30;101488.50;;;14.22;48.87
49541;BME280;35432;43.566;1.398;2023-02-11T14:16:12;101480.53;;;14.03;53.46
49541;BME280;35432;43.566;1.398;2023-02-11T14:18:58;101480.53;;;13.97;47.08
49541;BME280;35432;43.566;1.398;2023-02-11T14:32:20;101480.50;;;13.63;48.95
49541;BME280;35432;43.566;1.398;2023-02-11T14:40:50;101471.63;;;13.56;53.47
49541;BME280;35432;43.566;1.398;2023-02-11T14:43:25;101469.00;;;13.56;52.76
49541;BME280;35432;43.566;1.398;2023-02-11T14:45:54;101469.84;;;13.57;54.50
49541;BME280;35432;43.566;1.398;2023-02-11T14:48:29;101461.03;;;13.45;48.17
49541;BME280;35432;43.566;1.398;2023-02-11T14:53:44;101470.63;;;13.28;53.53
49541;BME280;35432;43.566;1.398;2023-02-11T14:56:23;101465.28;;;13.17;47.48
49541;BME280;35432;43.566;1.398;2023-02-11T14:58:50;101470.56;;;13.20;54.92
49541;BME280;35432;43.566;1.398;2023-02-11T15:01:40;101462.59;;;13.09;47.86
49541;BME280;35432;43.566;1.398;2023-02-11T15:04:21;101467.84;;;13.03;49.82
49541;BME280;35432;43.566;1.398;2023-02-11T15:06:48;101468.69;;;12.97;54.80
49541;BME280;35432;43.566;1.398;2023-02-11T15:09:19;101461.63;;;12.93;53.26
49541;BME280;35432;43.566;1.398;2023-02-11T15:11:48;101473.91;;;12.82;54.94
49541;BME280;35432;43.566;1.398;2023-02-11T15:14:25;101464.19;;;12.76;53.23
49541;BME280;35432;43.566;1.398;2023-02-11T15:16:53;101467.69;;;12.76;55.98
49541;BME280;35432;43.566;1.398;2023-02-11T15:19:25;101465.00;;;12.67;54.67
49541;BME280;35432;43.566;1.398;2023-02-11T15:21:52;101465.91;;;12.68;56.77